Time;durP1;ratioP1;P1;durP2;ratioP2;P2;SDS_P1;SDS_P2;PMS_P1;PMS_P2;Temp;Humidity;BMP_temperature;BMP_pressure;BME280_temperature;BME280_humidity;BME280_pressure;Samples;Min_cycle;Max_cycle;Signal;HPM_P1;HPM_P2
2023/04/03 00:01:01;;;;;;;1.23;1.10;;;;;;;7.50;89.17;62769.75;5040090;28;20259;-82
2023/04/03 00:03:30;;;;;;;1.10;1.10;;;;;;;7.53;89.61;62777.91;5045138;28;20218;-78
2023/04/03 00:05:57;;;;;;;0.90;0.90;;;;;;;7.49;90.22;62768.72;5048851;28;20198;-78
2023/04/03 00:08:24;;;;;;;0.77;0.75;;;;;;;7.39;91.28;62758.41;5048861;28;20234;-79
2023/04/03 00:10:51;;;;;;;0.93;0.93;;;;;;;7.39;91.11;62760.94;5049935;28;20202;-79
2023/04/03 00:13:19;;;;;;;1.10;1.10;;;;;;;7.37;91.58;62753.31;5043300;28;20289;-82
2023/04/03 00:15:46;;;;;;;1.00;1.00;;;;;;;7.30;91.83;62751.66;5033330;28;20201;-81
2023/04/03 00:18:13;;;;;;;1.20;1.20;;;;;;;7.31;92.00;62750.16;5037314;28;20517;-80
2023/04/03 00:20:42;;;;;;;0.85;0.85;;;;;;;7.35;91.80;62756.81;5051894;28;20202;-80
2023/04/03 00:23:08;;;;;;;1.20;1.20;;;;;;;7.29;92.22;62753.16;5051378;28;20241;-78
2023/04/03 00:25:36;;;;;;;1.40;1.30;;;;;;;7.27;92.40;62746.03;5052934;28;20202;-82
2023/04/03 00:28:04;;;;;;;0.80;0.80;;;;;;;7.21;92.39;62742.38;5042155;28;20227;-82
2023/04/03 00:30:31;;;;;;;0.95;0.95;;;;;;;7.23;92.62;62749.47;5035233;28;20226;-82
2023/04/03 00:32:58;;;;;;;1.00;1.00;;;;;;;7.20;92.70;62741.31;5033238;28;20214;-80
2023/04/03 00:35:26;;;;;;;0.90;0.90;;;;;;;7.20;92.42;62740.81;5033535;28;20222;-79
2023/04/03 00:37:55;;;;;;;0.60;0.60;;;;;;;7.20;92.59;62743.84;5030157;28;20257;-80
2023/04/03 00:40:24;;;;;;;1.40;1.40;;;;;;;7.14;93.33;62732.63;5031987;28;20203;-79
2023/04/03 00:42:56;;;;;;;1.20;1.20;;;;;;;7.14;93.05;62735.16;5032554;28;20215;-80
2023/04/03 00:45:33;;;;;;;1.80;1.20;;;;;;;7.14;94.19;62734.63;5035709;28;20206;-79
2023/04/03 00:48:02;;;;;;;1.10;1.10;;;;;;;7.06;94.23;62726.38;5053787;28;20236;-78
2023/04/03 00:50:30;;;;;;;1.10;1.10;;;;;;;7.14;93.94;62739.69;5038583;28;20195;-79
2023/04/03 00:52:59;;;;;;;0.90;0.90;;;;;;;7.09;94.35;62730.00;5046622;28;20278;-79
2023/04/03 00:55:27;;;;;;;0.85;0.85;;;;;;;7.03;94.46;62721.78;5031880;28;20270;-81
2023/04/03 00:57:55;;;;;;;1.17;0.90;;;;;;;7.00;94.89;62720.69;5034096;28;20241;-78
2023/04/03 01:00:24;;;;;;;0.90;0.90;;;;;;;7.03;94.85;62724.31;5042397;28;20298;-80
2023/04/03 01:02:52;;;;;;;1.20;0.82;;;;;;;6.99;94.75;62722.19;5045072;28;20224;-80
2023/04/03 01:05:21;;;;;;;0.88;0.88;;;;;;;7.03;95.04;62724.31;5052148;28;20265;-81
2023/04/03 01:07:50;;;;;;;0.90;0.90;;;;;;;7.00;95.40;62721.22;5039860;28;20303;-79
2023/04/03 01:10:20;;;;;;;1.00;1.00;;;;;;;6.96;95.80;62714.56;5032162;28;20231;-80
2023/04/03 01:12:50;;;;;;;1.05;1.05;;;;;;;6.93;96.19;62716.00;5030404;28;20285;-80
2023/04/03 01:15:19;;;;;;;1.45;1.38;;;;;;;6.98;96.02;62718.63;5033108;28;20241;-81
2023/04/03 01:17:48;;;;;;;1.38;1.30;;;;;;;6.94;96.18;62714.50;5029646;28;20234;-81
2023/04/03 01:20:47;;;;;;;2.15;1.40;;;;;;;6.93;96.36;62713.47;5036361;28;20216;-78
2023/04/03 01:23:22;;;;;;;1.20;1.20;;;;;;;6.85;96.30;62705.72;5047349;28;20225;-79
2023/04/03 01:25:54;;;;;;;0.73;0.73;;;;;;;6.96;95.99;62716.56;5052430;28;20202;-79
2023/04/03 01:28:23;;;;;;;0.88;0.88;;;;;;;6.87;96.27;62702.75;5050252;28;20263;-78
2023/04/03 01:30:57;;;;;;;1.35;1.25;;;;;;;6.84;96.41;62702.19;5044542;28;20245;-81
2023/04/03 01:33:25;;;;;;;0.93;0.93;;;;;;;6.77;96.64;62696.97;5029952;28;20278;-78
2023/04/03 01:35:53;;;;;;;1.02;0.98;;;;;;;6.86;96.14;62704.25;5032383;28;20209;-80
2023/04/03 01:38:20;;;;;;;2.25;1.10;;;;;;;6.82;96.64;62699.59;5030067;28;20226;-79
2023/04/03 01:40:47;;;;;;;1.30;1.20;;;;;;;6.78;96.80;62698.50;5043546;28;20205;-79
2023/04/03 01:43:14;;;;;;;5.18;0.90;;;;;;;6.75;96.32;62694.91;5051684;28;20226;-80
2023/04/03 01:45:41;;;;;;;1.67;1.40;;;;;;;6.74;97.12;62698.94;5051701;28;20201;-80
2023/04/03 01:48:08;;;;;;;1.00;1.00;;;;;;;6.73;97.36;62692.84;5045083;28;20582;-79
2023/04/03 01:50:36;;;;;;;1.00;1.00;;;;;;;6.71;97.43;62691.28;5029974;28;20229;-80
2023/04/03 01:53:03;;;;;;;1.20;1.20;;;;;;;6.75;97.59;62695.41;5030535;28;20421;-79
2023/04/03 01:55:30;;;;;;;1.35;1.20;;;;;;;6.73;97.90;62695.88;5030551;28;20199;-80
2023/04/03 01:57:57;;;;;;;1.15;1.15;;;;;;;6.69;97.57;62686.19;5039052;28;20245;-80
2023/04/03 02:00:24;;;;;;;0.70;0.70;;;;;;;6.74;97.60;62691.88;5051229;28;20225;-77
2023/04/03 02:02:51;;;;;;;1.10;1.00;;;;;;;6.80;97.07;62702.59;5051421;28;20225;-79
2023/04/03 02:05:18;;;;;;;1.17;0.80;;;;;;;6.76;97.54;62693.41;5049933;28;20194;-80
2023/04/03 02:07:46;;;;;;;1.13;1.13;;;;;;;6.68;98.22;62693.25;5049480;28;20237;-79
2023/04/03 02:10:14;;;;;;;0.95;0.93;;;;;;;6.70;98.17;62689.75;5049747;28;20229;-80
2023/04/03 02:12:42;;;;;;;1.17;1.17;;;;;;;6.61;98.55;62683.00;5049350;28;20539;-80
2023/04/03 02:15:09;;;;;;;0.90;0.90;;;;;;;6.52;99.09;62669.16;5049435;28;20491;-79
2023/04/03 02:17:37;;;;;;;0.70;0.70;;;;;;;6.49;99.37;62668.59;5049036;28;20435;-78
2023/04/03 02:20:04;;;;;;;0.90;0.90;;;;;;;6.50;99.89;62666.59;5051272;28;20198;-80
2023/04/03 02:22:31;;;;;;;1.40;1.40;;;;;;;6.41;99.98;62657.84;5048297;28;20260;-80
2023/04/03 02:25:00;;;;;;;1.08;1.05;;;;;;;6.35;100.00;62656.19;5047108;28;20226;-80
2023/04/03 02:27:27;;;;;;;1.00;1.00;;;;;;;6.23;100.00;62636.75;5047204;28;20225;-79
2023/04/03 02:29:54;;;;;;;1.10;1.10;;;;;;;6.24;100.00;62640.31;5050709;28;20230;-79
2023/04/03 02:32:21;;;;;;;1.70;1.60;;;;;;;6.23;100.00;62643.81;5048530;28;20214;-79
2023/04/03 02:34:48;;;;;;;1.23;1.23;;;;;;;6.10;100.00;62628.41;5037236;28;20199;-79
2023/04/03 02:37:15;;;;;;;1.67;1.58;;;;;;;6.11;100.00;62626.91;5031320;28;20261;-80
2023/04/03 02:39:42;;;;;;;3.45;1.60;;;;;;;6.08;100.00;62625.81;5029338;28;20202;-81
2023/04/03 02:42:10;;;;;;;1.45;1.35;;;;;;;6.09;100.00;62624.34;5030435;28;20433;-81
2023/04/03 02:44:38;;;;;;;1.60;1.50;;;;;;;6.06;100.00;62621.75;5028805;28;20203;-80
2023/04/03 02:47:05;;;;;;;1.13;1.13;;;;;;;5.97;100.00;62609.94;5029294;28;20226;-80
2023/04/03 02:49:32;;;;;;;2.53;1.83;;;;;;;5.96;100.00;62613.44;5030267;28;20226;-80
2023/04/03 02:51:59;;;;;;;1.70;1.60;;;;;;;5.92;100.00;62612.38;5035700;28;20229;-79
2023/04/03 02:54:28;;;;;;;1.30;1.30;;;;;;;5.84;100.00;62599.59;5048711;28;20200;-80
2023/04/03 02:56:55;;;;;;;3.17;1.80;;;;;;;5.78;100.00;62595.41;5048051;28;20221;-79
2023/04/03 02:59:23;;;;;;;2.08;1.98;;;;;;;5.75;100.00;62597.88;5050295;28;20416;-79
2023/04/03 03:01:50;;;;;;;2.45;1.75;;;;;;;5.75;100.00;62592.31;5044362;28;20222;-77
2023/04/03 03:04:17;;;;;;;1.40;1.40;;;;;;;5.74;100.00;62591.28;5047157;28;20300;-79
2023/04/03 03:06:44;;;;;;;2.80;1.50;;;;;;;5.64;100.00;62580.97;5046738;28;20562;-79
2023/04/03 03:09:12;;;;;;;1.45;1.40;;;;;;;5.68;100.00;62583.09;5047299;28;20234;-79
2023/04/03 03:11:40;;;;;;;2.00;1.80;;;;;;;5.61;100.00;62580.41;5047773;28;20297;-78
2023/04/03 03:14:07;;;;;;;3.85;2.55;;;;;;;5.60;100.00;62577.38;5048354;28;20236;-79
2023/04/03 03:16:35;;;;;;;2.15;2.00;;;;;;;5.53;100.00;62567.13;5051004;28;20218;-79
2023/04/03 03:19:02;;;;;;;1.20;1.20;;;;;;;5.60;100.00;62579.38;5047796;28;20198;-79
2023/04/03 03:21:29;;;;;;;1.20;1.20;;;;;;;5.64;100.00;62584.00;5048390;28;20218;-81
2023/04/03 03:23:56;;;;;;;1.33;0.80;;;;;;;5.69;100.00;62583.59;5047533;28;20213;-81
2023/04/03 03:26:23;;;;;;;1.13;1.02;;;;;;;5.68;100.00;62583.09;5051193;28;20202;-79
2023/04/03 03:28:50;;;;;;;0.75;0.75;;;;;;;5.75;100.00;62592.81;5038859;28;20226;-79
2023/04/03 03:31:17;;;;;;;1.00;0.98;;;;;;;5.81;100.00;62590.91;5028190;28;20195;-80
2023/04/03 03:33:45;;;;;;;1.38;1.10;;;;;;;5.77;100.00;62591.84;5027389;28;20209;-80
2023/04/03 03:36:12;;;;;;;1.65;1.10;;;;;;;5.81;100.00;62593.97;5028449;28;20290;-79
2023/04/03 03:38:39;;;;;;;1.23;1.23;;;;;;;5.83;100.00;62596.03;5026738;28;20257;-78
2023/04/03 03:41:06;;;;;;;1.23;1.13;;;;;;;5.89;100.00;62606.75;5026675;28;20202;-78
2023/04/03 03:43:33;;;;;;;1.55;1.45;;;;;;;5.91;100.00;62608.28;5026828;28;20237;-79
2023/04/03 03:46:00;;;;;;;1.95;1.70;;;;;;;5.92;100.00;62611.88;5032911;28;20224;-78
2023/04/03 03:48:27;;;;;;;1.60;1.50;;;;;;;5.98;100.00;62618.56;5032930;28;20218;-82
2023/04/03 03:50:56;;;;;;;1.85;1.75;;;;;;;6.04;100.00;62619.69;5032176;28;20234;-79
2023/04/03 03:53:23;;;;;;;1.40;1.35;;;;;;;6.10;100.00;62623.34;5031676;28;20523;-79
2023/04/03 03:55:50;;;;;;;1.13;1.13;;;;;;;6.05;100.00;62620.72;5040973;28;20225;-79
2023/04/03 03:58:17;;;;;;;1.30;1.30;;;;;;;6.03;100.00;62618.13;5053460;28;20301;-79
2023/04/03 04:00:44;;;;;;;1.10;1.10;;;;;;;6.00;100.00;62617.56;5052551;28;20197;-79
2023/04/03 04:03:11;;;;;;;2.72;1.10;;;;;;;6.04;100.00;62621.72;5053688;28;20236;-79
2023/04/03 04:05:38;;;;;;;1.20;1.20;;;;;;;6.07;100.00;62622.25;5043181;28;20221;-81
2023/04/03 04:08:06;;;;;;;2.33;1.80;;;;;;;6.11;100.00;62623.88;5050165;28;20276;-79
2023/04/03 04:10:34;;;;;;;2.25;2.15;;;;;;;6.12;100.00;62627.94;5051202;28;20225;-80
2023/04/03 04:13:01;;;;;;;3.22;2.45;;;;;;;6.16;100.00;62634.06;5046343;28;20452;-80
2023/04/03 04:15:29;;;;;;;2.08;1.88;;;;;;;6.10;100.00;62630.94;5035326;28;20225;-78
2023/04/03 04:17:56;;;;;;;5.65;3.75;;;;;;;6.15;100.00;62636.09;5030864;28;20226;-80
2023/04/03 04:20:24;;;;;;;2.30;2.20;;;;;;;6.19;100.00;62635.16;5034634;28;20237;-80
2023/04/03 04:22:51;;;;;;;2.08;1.98;;;;;;;6.25;100.00;62646.38;5043358;28;20272;-80
2023/04/03 04:25:19;;;;;;;1.80;1.70;;;;;;;6.28;100.00;62649.47;5040013;28;20204;-79
2023/04/03 04:27:46;;;;;;;2.15;1.80;;;;;;;6.36;100.00;62647.09;5034855;28;20223;-80
2023/04/03 04:30:14;;;;;;;1.95;1.85;;;;;;;6.37;100.00;62653.19;5031148;28;20241;-81
2023/04/03 04:32:41;;;;;;;2.38;1.70;;;;;;;6.47;100.00;62668.56;5043783;28;20225;-81
2023/04/03 04:35:09;;;;;;;8.05;1.60;;;;;;;6.52;100.00;62666.13;5050232;28;20190;-81
2023/04/03 04:37:36;;;;;;;3.10;1.83;;;;;;;6.56;100.00;62672.78;5051954;28;20213;-80
2023/04/03 04:40:03;;;;;;;2.00;1.90;;;;;;;6.58;100.00;62674.84;5054361;28;20217;-79
2023/04/03 04:42:31;;;;;;;1.75;1.65;;;;;;;6.68;100.00;62690.22;5047700;28;20252;-81
2023/04/03 04:44:59;;;;;;;2.20;2.10;;;;;;;6.71;100.00;62691.28;5031312;28;20198;-79
2023/04/03 04:47:26;;;;;;;2.40;2.30;;;;;;;6.77;100.00;62694.44;5032291;28;20226;-83
2023/04/03 04:49:52;;;;;;;2.35;2.25;;;;;;;6.83;100.00;62703.66;5037564;28;20237;-81
2023/04/03 04:52:19;;;;;;;3.63;1.92;;;;;;;6.91;100.00;62713.94;5049231;28;20240;-80
2023/04/03 04:54:47;;;;;;;2.28;2.17;;;;;;;7.03;100.00;62719.25;5050441;28;20253;-81
2023/04/03 04:57:13;;;;;;;4.60;3.85;;;;;;;7.11;100.00;62729.50;5052569;28;20218;-80
2023/04/03 04:59:42;;;;;;;2.63;2.42;;;;;;;7.19;100.00;62739.78;5049674;28;20202;-80
2023/04/03 05:02:09;;;;;;;2.10;1.85;;;;;;;7.24;100.00;62742.94;5049501;28;20409;-78
2023/04/03 05:04:35;;;;;;;1.95;1.48;;;;;;;7.35;100.00;62754.28;5051073;28;20198;-79
2023/04/03 05:07:03;;;;;;;2.33;2.03;;;;;;;7.42;100.00;62764.03;5050396;28;20225;-79
2023/04/03 05:09:29;;;;;;;7.95;2.13;;;;;;;7.53;100.00;62775.38;5048150;28;20234;-80
2023/04/03 05:11:57;;;;;;;1.80;1.70;;;;;;;7.66;99.86;62788.81;5049181;28;20377;-79
2023/04/03 05:14:24;;;;;;;3.05;2.67;;;;;;;7.52;98.99;62774.38;5051458;28;20190;-79
2023/04/03 05:16:52;;;;;;;2.22;1.73;;;;;;;7.82;98.77;62805.31;5049113;28;20396;-80
2023/04/03 05:19:20;;;;;;;2.35;2.25;;;;;;;7.78;98.42;62800.69;5048614;28;20209;-81
2023/04/03 05:21:47;;;;;;;2.55;2.45;;;;;;;7.95;98.03;62823.81;5052976;28;20214;-81
2023/04/03 05:24:14;;;;;;;3.67;2.00;;;;;;;8.01;98.11;62819.34;5052343;28;20202;-81
2023/04/03 05:26:41;;;;;;;2.72;2.10;;;;;;;8.06;98.19;62829.59;5050306;28;20245;-80
2023/04/03 05:29:09;;;;;;;2.85;2.10;;;;;;;8.19;97.99;62843.03;5038196;28;20203;-80
2023/04/03 05:31:36;;;;;;;2.58;2.47;;;;;;;8.27;97.71;62848.75;5033276;28;20230;-81
2023/04/03 05:34:04;;;;;;;2.65;2.45;;;;;;;8.36;94.88;62863.13;5039543;28;20233;-79
2023/04/03 05:36:31;;;;;;;6.22;2.58;;;;;;;8.11;95.85;62835.25;5044368;28;20245;-79
2023/04/03 05:38:58;;;;;;;3.65;2.90;;;;;;;7.58;100.00;62780.56;5032115;28;20242;-78
2023/04/03 05:41:25;;;;;;;6.68;3.22;;;;;;;7.46;100.00;62762.56;5040086;28;20269;-80
2023/04/03 05:43:52;;;;;;;3.80;3.25;;;;;;;7.43;100.00;62767.09;5039720;28;20228;-79
2023/04/03 05:46:21;;;;;;;5.68;2.70;;;;;;;7.62;100.00;62786.69;5038198;28;20221;-80
2023/04/03 05:48:49;;;;;;;5.38;2.70;;;;;;;7.72;100.00;62797.00;5043608;28;20208;-79
2023/04/03 05:51:20;;;;;;;4.65;3.30;;;;;;;8.05;100.00;62826.03;5034952;28;20240;-79
2023/04/03 05:53:48;;;;;;;2.83;2.63;;;;;;;8.17;100.00;62836.41;5035042;28;20195;-80
2023/04/03 05:56:15;;;;;;;3.70;3.40;;;;;;;8.38;100.00;62857.59;5037590;28;20208;-78
2023/04/03 05:58:42;;;;;;;8.90;3.70;;;;;;;8.48;99.01;62869.94;5040288;28;20200;-79
2023/04/03 06:01:09;;;;;;;4.75;3.60;;;;;;;8.64;98.71;62886.47;5041026;28;20194;-81
2023/04/03 06:03:36;;;;;;;5.03;4.47;;;;;;;8.71;97.65;62896.25;5041844;28;20199;-79
2023/04/03 06:06:05;;;;;;;5.93;4.63;;;;;;;8.74;97.96;62899.34;5029172;28;20229;-78
2023/04/03 06:08:34;;;;;;;5.97;4.80;;;;;;;8.53;98.33;62875.63;5038303;28;20225;-78
2023/04/03 06:11:02;;;;;;;9.45;5.63;;;;;;;8.30;100.00;62853.88;5036847;28;20246;-80
2023/04/03 06:13:29;;;;;;;11.13;5.75;;;;;;;8.28;100.00;62851.81;5027948;28;20230;-78
2023/04/03 06:15:56;;;;;;;21.55;6.60;;;;;;;8.20;100.00;62844.56;5027279;28;20194;-77
2023/04/03 06:18:24;;;;;;;17.77;7.68;;;;;;;8.12;100.00;62836.31;5027743;28;20223;-79
2023/04/03 06:20:51;;;;;;;21.13;8.23;;;;;;;8.08;100.00;62829.13;5032568;28;20444;-80
2023/04/03 06:23:18;;;;;;;20.55;7.90;;;;;;;8.06;100.00;62830.09;5041506;28;20693;-80
2023/04/03 06:25:46;;;;;;;9.38;7.28;;;;;;;8.18;100.00;62842.50;5037407;28;20198;-81
2023/04/03 06:28:14;;;;;;;12.35;7.40;;;;;;;8.52;100.00;62877.13;5035551;28;20219;-80
2023/04/03 06:30:41;;;;;;;14.77;7.05;;;;;;;8.70;98.97;62895.72;5046863;28;20230;-80
2023/04/03 06:33:09;;;;;;;16.13;7.03;;;;;;;8.68;98.63;62896.19;5050212;28;20224;-82
2023/04/03 06:35:38;;;;;;;16.85;6.93;;;;;;;8.68;97.62;62890.59;5038427;28;20401;-79
2023/04/03 06:38:09;;;;;;;7.95;6.95;;;;;;;8.99;95.32;62925.19;5031888;28;20218;-80
2023/04/03 06:40:36;;;;;;;13.65;7.45;;;;;;;9.00;94.53;62926.22;5029863;28;20214;-78
2023/04/03 06:43:04;;;;;;;17.98;6.95;;;;;;;9.05;94.79;62934.44;5029743;28;20242;-79
2023/04/03 06:45:32;;;;;;;13.95;6.88;;;;;;;9.28;94.24;62950.06;5033327;28;20385;-81
2023/04/03 06:48:00;;;;;;;13.32;7.03;;;;;;;9.49;90.92;62973.81;5046509;28;20222;-80
2023/04/03 06:50:27;;;;;;;10.00;6.57;;;;;;;9.55;89.15;62983.06;5047945;28;20240;-80
2023/04/03 06:52:53;;;;;;;11.63;6.88;;;;;;;9.42;89.91;62967.09;5047909;28;20284;-79
2023/04/03 06:55:21;;;;;;;13.43;7.15;;;;;;;9.57;90.20;62982.06;5034446;28;20203;-80
2023/04/03 06:57:48;;;;;;;13.98;6.70;;;;;;;9.57;87.93;62984.63;5044677;28;20543;-78
2023/04/03 07:00:17;;;;;;;9.30;6.55;;;;;;;9.83;87.90;63008.97;5037178;28;20245;-79
2023/04/03 07:02:45;;;;;;;10.13;6.28;;;;;;;9.90;86.96;63021.81;5029786;28;20227;-79
2023/04/03 07:05:13;;;;;;;8.52;6.70;;;;;;;9.91;86.53;63017.75;5035452;28;20209;-79
2023/04/03 07:07:42;;;;;;;8.43;6.47;;;;;;;9.92;86.68;63021.31;5037749;28;20226;-80
2023/04/03 07:10:10;;;;;;;14.05;7.45;;;;;;;10.16;84.47;63043.13;5034123;28;20257;-80
2023/04/03 07:12:37;;;;;;;8.35;7.03;;;;;;;10.27;83.02;63060.09;5039268;28;20228;-78
2023/04/03 07:15:05;;;;;;;10.35;6.68;;;;;;;10.24;83.54;63057.00;5034107;28;20205;-80
2023/04/03 07:17:34;;;;;;;12.13;7.53;;;;;;;10.19;83.13;63046.22;5036992;28;20276;-79
2023/04/03 07:20:01;;;;;;;16.20;7.72;;;;;;;10.05;84.24;63032.25;5047635;28;20193;-78
2023/04/03 07:22:30;;;;;;;14.88;7.20;;;;;;;10.09;85.16;63033.34;5046993;28;20360;-78
2023/04/03 07:24:58;;;;;;;12.20;7.68;;;;;;;10.00;85.19;63026.53;5047705;28;20194;-80
2023/04/03 07:27:25;;;;;;;7.65;6.68;;;;;;;10.31;83.88;63059.16;5048663;28;20256;-78
2023/04/03 07:29:52;;;;;;;13.88;7.65;;;;;;;10.31;82.15;63058.63;5046439;28;20273;-79
2023/04/03 07:32:19;;;;;;;7.35;6.57;;;;;;;10.15;84.21;63045.16;5045477;28;20245;-79
2023/04/03 07:34:51;;;;;;;17.35;7.35;;;;;;;9.94;86.69;63023.41;5042102;28;20205;-80
2023/04/03 07:37:18;;;;;;;12.48;7.40;;;;;;;10.21;86.64;63050.84;5050191;28;20257;-80
2023/04/03 07:39:45;;;;;;;17.23;7.85;;;;;;;10.52;82.95;63082.41;5050650;28;20207;-79
2023/04/03 07:42:36;;;;;;;14.65;8.15;;;;;;;10.38;83.61;63066.41;5050116;28;20340;-81
2023/04/03 07:45:03;;;;;;;10.70;7.00;;;;;;;10.31;83.26;63058.63;5045831;28;20198;-80
2023/04/03 07:47:30;;;;;;;12.30;7.07;;;;;;;10.39;83.23;63064.88;5031030;28;20274;-79
2023/04/03 07:49:58;;;;;;;9.38;6.78;;;;;;;10.30;85.63;63060.66;5044384;28;20220;-81
2023/04/03 07:52:26;;;;;;;11.40;8.30;;;;;;;10.64;82.99;63087.19;5049443;28;20424;-82
2023/04/03 07:54:53;;;;;;;15.38;8.52;;;;;;;10.27;82.99;63057.03;5047258;28;20499;-81
2023/04/03 07:57:24;;;;;;;19.38;9.65;;;;;;;10.53;83.30;63080.91;5048578;28;20233;-82
2023/04/03 07:59:53;;;;;;;20.35;9.38;;;;;;;10.66;79.55;63097.41;5051269;28;20210;-79
2023/04/03 08:02:23;;;;;;;15.63;10.10;;;;;;;10.96;79.30;63120.81;5050451;28;20262;-82
2023/04/03 08:04:50;;;;;;;13.85;9.10;;;;;;;11.06;77.39;63135.75;5051116;28;20220;-79
2023/04/03 08:07:24;;;;;;;19.80;9.98;;;;;;;11.17;77.43;63149.69;5039454;28;20257;-82
2023/04/03 08:09:51;;;;;;;14.57;9.10;;;;;;;11.33;73.83;63161.16;5030535;28;20187;-80
2023/04/03 08:12:20;;;;;;;16.50;9.93;;;;;;;11.60;72.82;63194.22;5029884;28;20233;-80
2023/04/03 08:14:48;;;;;;;14.40;10.15;;;;;;;11.40;74.46;63176.59;5031280;28;20214;-81
2023/04/03 08:17:15;;;;;;;22.77;10.43;;;;;;;11.31;75.13;63167.25;5049715;28;20221;-80
2023/04/03 08:19:42;;;;;;;21.02;10.60;;;;;;;11.34;74.89;63164.75;5050786;28;20417;-81
2023/04/03 08:22:09;;;;;;;15.65;9.90;;;;;;;11.43;75.03;63179.69;5051904;28;20523;-81
2023/04/03 08:24:37;;;;;;;14.75;9.13;;;;;;;11.39;74.80;63165.34;5048100;28;20264;-81
2023/04/03 08:27:04;;;;;;;13.82;9.68;;;;;;;11.63;73.21;63197.84;5038985;28;20214;-80
2023/04/03 08:29:31;;;;;;;13.63;8.85;;;;;;;11.91;71.64;63225.84;5049632;28;20526;-82
2023/04/03 08:31:58;;;;;;;18.77;9.32;;;;;;;12.37;69.80;63273.53;5048561;28;20248;-81
2023/04/03 08:34:25;;;;;;;11.18;9.00;;;;;;;12.52;69.54;63283.97;5053010;28;20209;-81
2023/04/03 08:36:52;;;;;;;9.88;8.48;;;;;;;12.29;72.15;63270.34;5043604;28;20257;-81
2023/04/03 08:39:19;;;;;;;15.48;7.88;;;;;;;12.28;70.89;63257.06;5033246;28;20199;-80
2023/04/03 08:41:48;;;;;;;8.18;7.35;;;;;;;12.58;69.25;63295.81;5033951;28;20217;-81
2023/04/03 08:44:23;;;;;;;17.77;9.15;;;;;;;12.48;67.01;63284.94;5040386;28;20200;-80
2023/04/03 08:47:12;;;;;;;11.68;7.95;;;;;;;12.37;68.52;63271.47;5052720;28;20248;-81
2023/04/03 08:49:47;;;;;;;11.20;7.53;;;;;;;12.04;68.31;63239.84;5050435;28;20205;-83
2023/04/03 08:52:18;;;;;;;11.15;7.40;;;;;;;12.27;68.75;63263.66;5034699;28;20266;-81
2023/04/03 08:54:52;;;;;;;9.88;7.65;;;;;;;12.88;66.79;63325.88;5031905;28;20199;-81
2023/04/03 08:57:29;;;;;;;8.95;7.15;;;;;;;13.34;62.43;63371.06;5034018;28;20535;-83
2023/04/03 08:59:58;;;;;;;11.48;6.93;;;;;;;13.78;60.22;63417.25;5039095;28;20197;-81
2023/04/03 09:02:30;;;;;;;11.00;7.50;;;;;;;13.77;59.98;63418.25;5037916;28;20241;-82
2023/04/03 09:04:57;;;;;;;9.32;6.70;;;;;;;13.73;59.39;63411.53;5046836;28;20209;-79
2023/04/03 09:07:34;;;;;;;7.57;5.82;;;;;;;13.77;58.72;63418.75;5047802;28;20228;-80
2023/04/03 09:10:02;;;;;;;6.72;3.78;;;;;;;13.81;56.70;63422.91;5040186;28;20194;-81
2023/04/03 09:12:38;;;;;;;2.92;2.22;;;;;;;13.91;54.15;63428.19;5041876;28;20257;-80
2023/04/03 09:15:14;;;;;;;7.13;3.08;;;;;;;14.18;54.09;63460.81;5046416;28;20198;-81
2023/04/03 09:17:47;;;;;;;5.45;4.38;;;;;;;13.94;55.38;63438.97;5048360;28;20225;-81
2023/04/03 09:20:26;;;;;;;4.53;4.13;;;;;;;13.89;56.83;63431.22;5042341;28;20386;-82
2023/04/03 09:22:54;;;;;;;2.90;1.73;;;;;;;14.38;53.18;63481.06;5049274;28;20252;-81
2023/04/03 09:25:24;;;;;;;1.42;1.33;;;;;;;13.93;51.90;63436.91;5050063;28;20209;-79
2023/04/03 09:27:53;;;;;;;1.10;1.10;;;;;;;14.22;51.68;63462.41;5048842;28;20217;-81
2023/04/03 09:30:22;;;;;;;1.90;1.80;;;;;;;14.15;51.67;63459.75;5034819;28;20426;-80
2023/04/03 09:32:51;;;;;;;1.70;1.60;;;;;;;14.12;51.67;63457.13;5032867;28;20238;-81
2023/04/03 09:35:24;;;;;;;1.77;1.67;;;;;;;14.24;51.28;63467.03;5032497;28;20202;-82
2023/04/03 09:37:53;;;;;;;1.77;1.77;;;;;;;14.29;50.90;63472.25;5030882;28;20221;-81
2023/04/03 09:40:35;;;;;;;1.40;1.40;;;;;;;14.14;50.46;63454.09;5029398;28;20270;-82
2023/04/03 09:43:25;;;;;;;1.35;1.35;;;;;;;14.08;51.47;63450.41;5029882;28;20246;-83
2023/04/03 09:45:54;;;;;;;0.90;0.90;;;;;;;14.13;51.47;63455.09;5028105;28;20237;-80
2023/04/03 09:48:23;;;;;;;1.15;1.13;;;;;;;14.23;50.98;63463.44;5031522;28;20433;-79
2023/04/03 09:51:01;;;;;;;1.50;1.50;;;;;;;14.47;50.10;63487.84;5041963;28;20205;-83
2023/04/03 09:53:37;;;;;;;3.55;3.03;;;;;;;14.76;48.82;63518.50;5052797;28;20276;-81
2023/04/03 09:56:20;;;;;;;9.18;7.30;;;;;;;14.55;49.96;63499.25;5047489;28;20197;-80
2023/04/03 09:58:50;;;;;;;5.78;4.85;;;;;;;14.59;49.65;63497.75;5038323;28;20227;-81
2023/04/03 10:01:29;;;;;;;4.80;4.40;;;;;;;14.50;49.75;63491.50;5031750;28;20208;-79
2023/04/03 10:04:21;;;;;;;2.15;2.05;;;;;;;14.06;51.58;63445.28;5035927;28;20245;-81
2023/04/03 10:06:50;;;;;;;1.30;1.30;;;;;;;14.13;51.37;63453.06;5023094;28;20214;-82
2023/04/03 10:09:24;;;;;;;1.70;1.60;;;;;;;13.84;52.82;63425.50;5034258;28;20202;-81
2023/04/03 10:12:05;;;;;;;2.47;1.83;;;;;;;13.86;52.98;63425.03;5043879;28;20229;-81
2023/04/03 10:14:35;;;;;;;1.80;1.70;;;;;;;13.78;52.86;63419.28;5045560;28;20193;-81
2023/04/03 10:17:19;;;;;;;2.20;1.80;;;;;;;13.84;53.45;63423.47;5040105;28;20214;-80
2023/04/03 10:19:53;;;;;;;1.38;1.38;;;;;;;13.69;53.37;63409.94;5031752;28;20199;-82
2023/04/03 10:22:33;;;;;;;1.60;1.50;;;;;;;13.34;54.50;63373.63;5041970;28;20252;-81
2023/04/03 10:25:13;;;;;;;1.42;1.33;;;;;;;13.38;54.82;63377.78;5046851;28;20186;-80
2023/04/03 10:27:54;;;;;;;2.00;1.50;;;;;;;13.33;55.30;63373.09;5046862;28;20407;-80
2023/04/03 10:30:33;;;;;;;3.08;2.03;;;;;;;13.41;55.19;63380.88;5042691;28;20191;-81
2023/04/03 10:33:17;;;;;;;3.08;2.88;;;;;;;13.73;54.37;63414.09;5033237;28;20437;-81
2023/04/03 10:35:49;;;;;;;1.67;1.58;;;;;;;13.71;54.42;63415.09;5034292;28;20194;-81
2023/04/03 10:38:22;;;;;;;1.38;1.38;;;;;;;13.63;54.16;63404.22;5039321;28;20257;-80
2023/04/03 10:40:58;;;;;;;2.58;1.67;;;;;;;13.75;54.11;63416.19;5035970;28;20210;-81
2023/04/03 10:43:34;;;;;;;1.55;1.48;;;;;;;13.77;54.17;63418.25;5040968;28;20225;-80
2023/04/03 10:46:07;;;;;;;2.58;1.85;;;;;;;13.61;55.54;63404.19;5034822;28;20266;-80
2023/04/03 10:48:54;;;;;;;1.77;1.67;;;;;;;13.23;57.10;63372.97;5041060;28;20199;-79
2023/04/03 10:51:28;;;;;;;2.45;2.28;;;;;;;12.90;58.17;63327.97;5031123;28;20290;-82
2023/04/03 10:54:01;;;;;;;4.15;1.95;;;;;;;12.98;57.50;63336.28;5048673;28;20521;-80
2023/04/03 10:56:37;;;;;;;4.47;2.15;;;;;;;12.91;58.69;63329.00;5048306;28;20210;-80
2023/04/03 10:59:17;;;;;;;3.50;1.67;;;;;;;12.60;63.24;63303.00;5049626;28;20186;-81
2023/04/03 11:01:47;;;;;;;3.35;1.70;;;;;;;12.72;63.75;63310.34;5049309;28;20214;-82
2023/04/03 11:04:17;;;;;;;3.25;1.98;;;;;;;12.68;66.86;63306.19;5048334;28;20258;-80
2023/04/03 11:06:48;;;;;;;2.10;1.98;;;;;;;12.80;66.91;63318.13;5043790;28;20218;-80
2023/04/03 11:09:22;;;;;;;2.20;2.10;;;;;;;12.72;69.58;63312.88;5050111;28;20217;-80
2023/04/03 11:11:52;;;;;;;3.00;1.90;;;;;;;12.47;76.58;63281.88;5046807;28;20530;-82
2023/04/03 11:14:25;;;;;;;2.90;2.30;;;;;;;11.94;83.96;63229.47;5049063;28;20483;-81
2023/04/03 11:17:14;;;;;;;2.55;1.90;;;;;;;11.48;89.59;63179.78;5030047;28;20226;-82
2023/04/03 11:19:47;;;;;;;2.42;2.20;;;;;;;11.19;94.35;63152.28;5035987;28;20213;-83
2023/04/03 11:22:23;;;;;;;2.72;2.53;;;;;;;10.84;100.00;63118.59;5049666;28;20225;-81
2023/04/03 11:25:00;;;;;;;2.63;2.53;;;;;;;10.47;100.00;63073.16;5048398;28;20198;-81
2023/04/03 11:27:33;;;;;;;3.10;2.80;;;;;;;10.24;100.00;63054.47;5046342;28;20217;-79
2023/04/03 11:30:00;;;;;;;3.35;2.60;;;;;;;10.16;100.00;63045.66;5043013;28;20197;-78
2023/04/03 11:32:55;;;;;;;3.33;3.13;;;;;;;10.12;100.00;63044.06;5039343;28;20269;-78
2023/04/03 11:35:23;;;;;;;3.35;2.95;;;;;;;10.18;100.00;63045.19;5028085;28;20258;-82
2023/04/03 11:37:53;;;;;;;3.35;3.15;;;;;;;10.11;100.00;63040.50;5033520;28;20242;-80
2023/04/03 11:40:26;;;;;;;5.15;3.42;;;;;;;10.24;100.00;63048.84;5047970;28;20234;-80
2023/04/03 11:42:56;;;;;;;3.53;3.22;;;;;;;10.45;100.00;63076.19;5049682;28;20245;-81
2023/04/03 11:45:36;;;;;;;3.08;2.88;;;;;;;10.50;100.00;63080.84;5043383;28;20202;-80